Time;durP1;ratioP1;P1;durP2;ratioP2;P2;SDS_P1;SDS_P2;PMS_P1;PMS_P2;Temp;Humidity;BMP_temperature;BMP_pressure;BME280_temperature;BME280_humidity;BME280_pressure;Samples;Min_cycle;Max_cycle;Signal;HPM_P1;HPM_P2
2021/06/29 00:02:02;;;;;;;2.97;2.73;;;21.60;1.00;;;;;;4975581;28;20478;-77
2021/06/29 00:04:30;;;;;;;3.47;3.20;;;21.60;1.00;;;;;;4976084;28;20454;-79
2021/06/29 00:06:58;;;;;;;2.20;2.00;;;21.60;1.00;;;;;;4979582;28;20480;-79
2021/06/29 00:09:26;;;;;;;2.70;2.40;;;21.60;1.00;;;;;;4977032;28;20449;-79
2021/06/29 00:11:54;;;;;;;2.13;1.97;;;21.60;99.90;;;;;;4977200;28;20508;-79
2021/06/29 00:14:24;;;;;;;2.87;2.67;;;21.50;1.00;;;;;;4981199;28;21078;-78
2021/06/29 00:16:53;;;;;;;2.40;2.13;;;21.50;1.00;;;;;;4979499;28;20521;-79
2021/06/29 00:19:21;;;;;;;2.30;2.20;;;21.40;1.00;;;;;;4980482;28;20466;-82
2021/06/29 00:21:53;;;;;;;1.93;1.83;;;21.30;77.30;;;;;;4976017;28;20533;-79
2021/06/29 00:24:21;;;;;;;1.90;1.80;;;21.30;1.00;;;;;;4987921;28;20515;-79
2021/06/29 00:26:49;;;;;;;2.00;1.90;;;21.40;1.00;;;;;;4974070;28;20462;-81
2021/06/29 00:29:17;;;;;;;2.27;2.07;;;21.50;1.00;;;;;;4976807;28;20459;-78
2021/06/29 00:31:47;;;;;;;2.00;1.90;;;21.50;1.00;;;;;;4977488;28;20514;-80
2021/06/29 00:34:15;;;;;;;3.03;2.50;;;21.50;1.00;;;;;;4979338;28;20451;-80
2021/06/29 00:36:43;;;;;;;1.80;1.70;;;21.50;99.90;;;;;;4975881;28;20454;-81
2021/06/29 00:39:11;;;;;;;3.43;2.53;;;21.50;1.00;;;;;;4985751;28;20454;-80
2021/06/29 00:41:39;;;;;;;2.47;2.37;;;21.40;1.00;;;;;;4985866;28;20507;-80
2021/06/29 00:47:11;;;;;;;2.70;2.50;;;21.40;1.00;;;;;;5202135;23;20503;-80
2021/06/29 00:49:40;;;;;;;2.80;2.50;;;21.40;1.00;;;;;;5003236;28;20525;-81
2021/06/29 00:52:13;;;;;;;2.90;2.70;;;21.50;1.00;;;;;;4999327;28;20473;-79
2021/06/29 00:54:41;;;;;;;2.33;2.13;;;21.60;99.90;;;;;;4992242;28;20487;-80
2021/06/29 00:57:11;;;;;;;2.33;2.20;;;21.60;99.90;;;;;;4973973;28;21876;-79
2021/06/29 00:59:41;;;;;;;2.43;2.17;;;21.70;99.90;;;;;;4975171;28;21069;-79
2021/06/29 01:02:11;;;;;;;3.20;2.40;;;21.70;94.30;;;;;;4970842;28;20956;-80
2021/06/29 01:04:40;;;;;;;2.53;2.03;;;21.70;99.90;;;;;;4972232;28;20491;-79
2021/06/29 01:07:10;;;;;;;2.10;1.97;;;21.70;99.90;;;;;;4970822;28;20517;-79
2021/06/29 01:09:39;;;;;;;2.20;2.10;;;21.70;18.40;;;;;;4970662;28;20503;-78
2021/06/29 01:12:09;;;;;;;7.90;2.20;;;21.70;1.00;;;;;;4989256;28;20516;-80
2021/06/29 01:14:37;;;;;;;1.90;1.80;;;21.70;1.00;;;;;;4971639;28;20448;-78
2021/06/29 01:17:07;;;;;;;2.30;2.20;;;21.60;1.00;;;;;;4988275;28;20466;-80
2021/06/29 01:19:43;;;;;;;2.80;2.07;;;21.60;1.00;;;;;;4980645;28;20451;-81
2021/06/29 01:22:13;;;;;;;2.10;1.83;;;21.60;1.00;;;;;;4980193;28;21255;-80
2021/06/29 01:24:43;;;;;;;1.83;1.73;;;21.60;1.00;;;;;;4979880;28;20485;-80
2021/06/29 01:27:29;;;;;;;2.20;1.60;;;21.60;1.00;;;;;;4984889;28;20759;-79
2021/06/29 01:32:42;;;;;;;1.77;1.67;;;21.60;1.00;;;;;;4982650;28;20457;-80
2021/06/29 01:35:11;;;;;;;1.70;1.60;;;21.60;1.00;;;;;;4977870;28;20543;-80
2021/06/29 01:37:40;;;;;;;2.60;2.07;;;21.60;1.00;;;;;;4986247;28;20463;-81
2021/06/29 01:40:12;;;;;;;1.90;1.80;;;21.60;1.00;;;;;;4968118;28;20493;-80
2021/06/29 01:42:40;;;;;;;2.03;1.93;;;21.50;1.00;;;;;;4986452;28;20466;-79
2021/06/29 01:45:09;;;;;;;1.97;1.87;;;21.50;1.00;;;;;;4975720;28;20509;-80
2021/06/29 01:47:50;;;;;;;1.70;1.60;;;21.40;1.00;;;;;;4973354;28;20531;-80
2021/06/29 01:50:19;;;;;;;2.17;2.00;;;21.30;97.60;;;;;;4971208;28;20522;-79
2021/06/29 01:52:54;;;;;;;2.07;1.70;;;21.30;99.90;;;;;;4990915;28;20460;-79
2021/06/29 01:55:22;;;;;;;2.87;2.60;;;21.20;99.90;;;;;;4993945;28;20507;-83
2021/06/29 01:57:51;;;;;;;1.83;1.73;;;21.20;99.90;;;;;;4971149;28;20443;-80
2021/06/29 02:00:20;;;;;;;3.80;2.27;;;21.20;99.90;;;;;;4983579;28;20454;-79
2021/06/29 02:02:49;;;;;;;2.27;1.73;;;21.30;1.00;;;;;;4986961;28;20504;-80
2021/06/29 02:05:17;;;;;;;1.90;1.80;;;21.30;99.90;;;;;;4969584;28;20818;-79
2021/06/29 02:07:48;;;;;;;2.50;2.37;;;21.30;99.40;;;;;;4985305;28;20853;-79
2021/06/29 02:10:18;;;;;;;1.70;1.60;;;21.30;1.00;;;;;;4971827;28;20454;-79
2021/06/29 02:12:46;;;;;;;2.00;1.90;;;21.30;99.90;;;;;;4972313;28;20498;-81
2021/06/29 02:15:15;;;;;;;1.70;1.60;;;21.40;1.00;;;;;;4974016;28;20459;-80
2021/06/29 02:17:43;;;;;;;1.70;1.60;;;21.40;1.00;;;;;;4979341;28;20458;-80
2021/06/29 02:20:12;;;;;;;1.73;1.53;;;21.40;1.00;;;;;;4980667;28;20528;-80
2021/06/29 02:22:41;;;;;;;1.73;1.50;;;21.40;1.00;;;;;;4978021;28;20445;-80
2021/06/29 02:25:12;;;;;;;3.13;2.20;;;21.50;1.00;;;;;;4973350;28;20458;-80
2021/06/29 02:27:42;;;;;;;1.77;1.67;;;21.50;1.00;;;;;;4985955;28;20819;-79
2021/06/29 02:30:11;;;;;;;3.40;1.80;;;21.50;1.00;;;;;;4972985;28;20449;-79
2021/06/29 02:32:39;;;;;;;2.17;2.07;;;21.50;8.00;;;;;;4978124;28;20541;-82
2021/06/29 02:35:09;;;;;;;2.17;1.97;;;21.60;1.00;;;;;;4969343;28;20459;-79
2021/06/29 02:37:37;;;;;;;1.90;1.73;;;21.60;1.00;;;;;;4969948;28;20509;-80
2021/06/29 02:40:07;;;;;;;1.50;1.40;;;21.50;1.00;;;;;;4970234;28;20453;-79
2021/06/29 02:42:35;;;;;;;1.80;1.60;;;21.50;1.00;;;;;;4970081;28;20467;-80
2021/06/29 02:45:07;;;;;;;1.97;1.60;;;21.40;1.00;;;;;;4978562;28;21064;-79
2021/06/29 02:47:37;;;;;;;1.77;1.67;;;21.40;99.90;;;;;;4977324;28;20537;-79
2021/06/29 02:50:08;;;;;;;2.07;1.97;;;21.40;1.00;;;;;;4985015;28;20513;-80
2021/06/29 02:52:37;;;;;;;2.20;2.00;;;21.30;71.00;;;;;;4970856;28;20544;-80
2021/06/29 02:55:07;;;;;;;2.80;1.73;;;21.30;99.90;;;;;;4970579;28;20489;-79
2021/06/29 02:57:36;;;;;;;3.40;2.00;;;21.40;99.90;;;;;;4968012;28;20472;-80
2021/06/29 03:00:21;;;;;;;2.47;2.30;;;21.40;1.00;;;;;;4972922;28;20473;-79
2021/06/29 03:02:49;;;;;;;2.00;1.90;;;21.30;99.90;;;;;;4969838;28;20471;-79
2021/06/29 03:05:18;;;;;;;2.57;2.13;;;21.30;99.90;;;;;;4970365;28;20490;-80
2021/06/29 03:07:46;;;;;;;1.90;1.80;;;21.40;99.90;;;;;;4969707;28;20506;-80
2021/06/29 03:10:14;;;;;;;2.30;1.83;;;21.40;99.90;;;;;;4972058;28;20466;-80
2021/06/29 03:12:42;;;;;;;1.97;1.87;;;21.40;99.90;;;;;;4977438;28;20522;-80
2021/06/29 03:15:12;;;;;;;2.70;2.10;;;21.50;8.90;;;;;;4970304;28;21091;-80
2021/06/29 03:17:41;;;;;;;2.47;2.30;;;21.50;1.00;;;;;;4969524;28;20589;-80
2021/06/29 03:20:11;;;;;;;2.47;2.10;;;21.50;25.40;;;;;;4977548;28;20485;-80
2021/06/29 03:22:40;;;;;;;1.60;1.50;;;21.40;99.90;;;;;;4985330;28;20534;-80
2021/06/29 03:25:09;;;;;;;1.83;1.73;;;21.40;99.90;;;;;;4974570;28;20459;-80
2021/06/29 03:27:37;;;;;;;2.23;2.03;;;21.40;99.90;;;;;;4979522;28;20445;-80
2021/06/29 03:30:07;;;;;;;4.07;2.37;;;21.40;99.90;;;;;;4979551;28;21288;-79
2021/06/29 03:32:37;;;;;;;3.33;2.27;;;21.40;99.90;;;;;;4987309;28;20464;-79
2021/06/29 03:35:08;;;;;;;2.40;2.20;;;21.40;1.00;;;;;;4983330;28;20467;-82
2021/06/29 03:37:37;;;;;;;2.43;2.20;;;21.30;1.00;;;;;;4990121;28;21118;-81
2021/06/29 03:40:07;;;;;;;2.30;2.10;;;21.30;1.00;;;;;;4972185;28;20455;-81
2021/06/29 03:42:42;;;;;;;2.33;2.13;;;21.30;1.00;;;;;;4972948;28;20451;-78
2021/06/29 03:45:15;;;;;;;2.33;1.80;;;21.30;48.10;;;;;;4975451;28;20452;-78
2021/06/29 03:47:44;;;;;;;2.40;1.90;;;21.20;41.50;;;;;;4990888;28;20873;-81
2021/06/29 03:50:13;;;;;;;2.30;2.13;;;21.20;1.00;;;;;;4982658;28;20436;-79
2021/06/29 03:52:41;;;;;;;2.70;1.60;;;21.20;99.90;;;;;;4979157;28;20495;-80
2021/06/29 03:55:10;;;;;;;1.80;1.70;;;21.20;1.00;;;;;;4984105;28;20455;-80
2021/06/29 03:57:38;;;;;;;1.73;1.60;;;21.30;99.90;;;;;;4987284;28;20961;-79
2021/06/29 04:00:08;;;;;;;2.80;1.80;;;21.30;99.90;;;;;;4982497;28;20995;-80
2021/06/29 04:02:36;;;;;;;2.60;1.90;;;21.30;99.90;;;;;;4974149;28;20444;-79
2021/06/29 04:05:07;;;;;;;1.43;1.33;;;21.40;99.90;;;;;;4977125;28;20455;-79
2021/06/29 04:07:36;;;;;;;2.20;2.00;;;21.30;99.90;;;;;;4992661;28;20484;-79
2021/06/29 04:10:05;;;;;;;3.20;1.60;;;21.30;99.90;;;;;;4974653;28;20439;-78
2021/06/29 04:12:33;;;;;;;1.60;1.50;;;21.30;99.90;;;;;;4989198;28;20443;-79
2021/06/29 04:15:02;;;;;;;1.80;1.70;;;21.30;1.00;;;;;;4973067;28;20463;-79
2021/06/29 04:17:31;;;;;;;1.90;1.43;;;21.30;1.00;;;;;;4983048;28;20478;-82
2021/06/29 04:19:59;;;;;;;1.97;1.80;;;21.30;99.90;;;;;;4983323;28;20460;-78
2021/06/29 04:22:28;;;;;;;2.10;2.00;;;21.20;99.90;;;;;;4978876;28;20454;-78
2021/06/29 04:24:57;;;;;;;1.93;1.83;;;21.20;99.90;;;;;;4979272;28;20478;-78
2021/06/29 04:27:25;;;;;;;3.73;1.40;;;21.20;99.90;;;;;;4975440;28;20534;-79
2021/06/29 04:29:53;;;;;;;1.80;1.70;;;21.20;1.00;;;;;;4974968;28;20457;-72
2021/06/29 04:32:22;;;;;;;2.93;1.70;;;21.30;99.90;;;;;;4983609;28;21055;-72
2021/06/29 04:34:50;;;;;;;2.60;2.07;;;21.20;1.00;;;;;;4987656;28;20451;-73
2021/06/29 04:37:18;;;;;;;2.63;1.70;;;21.10;99.90;;;;;;4985186;28;20474;-72
2021/06/29 04:39:48;;;;;;;1.73;1.63;;;21.10;99.90;;;;;;4969786;28;20529;-72
2021/06/29 04:42:16;;;;;;;3.37;2.30;;;21.10;99.90;;;;;;4977553;28;20513;-72
2021/06/29 04:44:44;;;;;;;4.33;2.10;;;21.10;99.90;;;;;;4968939;28;20490;-72
2021/06/29 04:47:12;;;;;;;1.83;1.73;;;21.10;99.90;;;;;;4972279;28;20474;-72
2021/06/29 04:49:41;;;;;;;2.07;1.97;;;21.10;99.70;;;;;;4974869;28;20455;-73
2021/06/29 04:52:09;;;;;;;1.97;1.80;;;21.00;99.90;;;;;;4985609;28;20436;-72
2021/06/29 04:54:37;;;;;;;1.80;1.70;;;21.10;99.90;;;;;;4982492;28;20446;-72
2021/06/29 04:57:08;;;;;;;2.37;2.17;;;21.10;7.00;;;;;;4978470;28;20530;-72
2021/06/29 04:59:38;;;;;;;4.27;2.37;;;21.10;77.00;;;;;;4980021;28;20479;-72
2021/06/29 05:02:06;;;;;;;2.60;2.40;;;21.10;99.90;;;;;;4982177;28;20505;-72
2021/06/29 05:04:35;;;;;;;2.23;2.00;;;21.10;1.00;;;;;;4979994;28;20911;-72
2021/06/29 05:07:03;;;;;;;2.30;2.10;;;21.10;1.00;;;;;;4984383;28;20482;-73
2021/06/29 05:09:31;;;;;;;3.03;2.47;;;21.00;99.90;;;;;;4981397;28;20493;-73
2021/06/29 05:11:59;;;;;;;2.07;1.97;;;20.90;99.90;;;;;;4974023;28;20499;-80
2021/06/29 05:14:28;;;;;;;2.50;2.30;;;21.00;5.40;;;;;;4977193;28;20545;-82
2021/06/29 05:16:56;;;;;;;2.10;2.00;;;21.00;1.00;;;;;;4980138;28;20471;-81
2021/06/29 05:19:25;;;;;;;2.93;2.20;;;21.00;99.90;;;;;;4978980;28;20546;-80
2021/06/29 05:21:53;;;;;;;78.13;30.27;;;21.10;99.90;;;;;;4985941;28;20536;-79
2021/06/29 05:24:21;;;;;;;7.63;4.40;;;21.10;99.90;;;;;;4973305;28;20455;-81
2021/06/29 05:26:50;;;;;;;3.10;2.90;;;21.20;12.10;;;;;;4989057;28;20563;-79
2021/06/29 05:29:18;;;;;;;2.53;2.33;;;21.10;99.90;;;;;;4969972;28;20868;-80
2021/06/29 05:31:48;;;;;;;2.10;1.90;;;21.20;1.00;;;;;;4969918;28;20506;-79
2021/06/29 05:34:16;;;;;;;2.37;2.27;;;21.20;1.00;;;;;;4976597;28;20473;-80
2021/06/29 05:36:44;;;;;;;2.50;2.30;;;21.20;1.00;;;;;;4989684;28;20474;-79
2021/06/29 05:39:15;;;;;;;2.43;2.13;;;21.20;99.90;;;;;;4971848;28;20475;-79
2021/06/29 05:41:43;;;;;;;2.33;2.13;;;21.20;1.00;;;;;;4979733;28;20467;-79
2021/06/29 05:44:12;;;;;;;3.00;2.03;;;21.20;1.00;;;;;;4986638;28;20462;-80
2021/06/29 05:46:41;;;;;;;2.37;2.10;;;21.20;99.90;;;;;;4978367;28;20479;-81
2021/06/29 05:49:13;;;;;;;3.00;2.30;;;21.20;99.90;;;;;;4975357;28;20459;-79
2021/06/29 05:51:45;;;;;;;2.20;2.00;;;21.20;99.90;;;;;;4980673;28;20509;-81
2021/06/29 05:54:13;;;;;;;2.23;1.60;;;21.20;1.00;;;;;;4978914;28;20967;-79
2021/06/29 05:56:42;;;;;;;5.07;2.00;;;21.30;99.90;;;;;;4986255;28;20541;-81
2021/06/29 05:59:11;;;;;;;2.67;2.40;;;21.30;99.90;;;;;;4979178;28;20529;-80
2021/06/29 06:01:39;;;;;;;2.17;2.03;;;21.40;42.70;;;;;;4972067;28;20525;-79
2021/06/29 06:04:12;;;;;;;2.90;1.90;;;21.40;99.90;;;;;;4971128;28;20850;-81
2021/06/29 06:06:40;;;;;;;2.40;2.23;;;21.40;1.00;;;;;;4970126;28;20482;-78
2021/06/29 06:09:08;;;;;;;3.50;2.63;;;21.40;99.90;;;;;;4973955;28;20803;-80
2021/06/29 06:11:36;;;;;;;1.90;1.80;;;21.50;99.90;;;;;;4980979;28;20462;-81
2021/06/29 06:14:05;;;;;;;1.87;1.70;;;21.50;59.70;;;;;;4970780;28;20457;-80
2021/06/29 06:16:33;;;;;;;2.13;1.97;;;21.50;72.30;;;;;;4979983;28;20725;-83
2021/06/29 06:19:01;;;;;;;2.03;1.93;;;21.50;99.90;;;;;;4974869;28;20523;-81
2021/06/29 06:21:31;;;;;;;1.90;1.70;;;21.50;1.00;;;;;;4977435;28;20521;-80
2021/06/29 06:23:59;;;;;;;2.97;1.30;;;21.50;99.90;;;;;;4973755;28;20452;-81
2021/06/29 06:26:27;;;;;;;3.33;1.60;;;21.50;99.90;;;;;;4970787;28;20548;-80
2021/06/29 06:28:55;;;;;;;1.63;1.53;;;21.50;1.00;;;;;;4973976;28;20511;-80
2021/06/29 06:31:23;;;;;;;2.27;1.50;;;21.60;99.90;;;;;;4971392;28;20512;-81
2021/06/29 06:33:51;;;;;;;2.13;1.80;;;21.50;99.90;;;;;;4971017;28;20497;-79
2021/06/29 06:36:19;;;;;;;2.20;1.50;;;21.50;99.90;;;;;;4970115;28;20550;-81
2021/06/29 06:38:49;;;;;;;2.03;1.40;;;21.50;1.00;;;;;;4974624;28;20842;-80
2021/06/29 06:41:17;;;;;;;1.40;1.30;;;21.60;99.90;;;;;;4985571;28;20522;-80
2021/06/29 06:43:46;;;;;;;1.40;1.30;;;21.60;9.00;;;;;;4987276;28;20448;-79
2021/06/29 06:46:14;;;;;;;1.97;1.87;;;21.60;1.00;;;;;;4977602;28;20478;-80
2021/06/29 06:48:43;;;;;;;3.00;1.20;;;21.60;89.70;;;;;;4975396;28;20477;-79
2021/06/29 06:51:13;;;;;;;1.60;1.50;;;21.50;1.00;;;;;;4988605;28;20461;-78
2021/06/29 06:53:41;;;;;;;1.70;1.60;;;21.50;1.00;;;;;;4972183;28;20468;-80
2021/06/29 06:56:14;;;;;;;2.40;1.33;;;21.70;1.00;;;;;;4972764;28;21064;-80
2021/06/29 06:58:43;;;;;;;2.50;1.30;;;21.70;99.90;;;;;;4973985;28;20469;-79
2021/06/29 07:01:13;;;;;;;1.30;1.20;;;21.80;1.00;;;;;;4980687;28;20977;-79
2021/06/29 07:03:44;;;;;;;1.77;1.47;;;21.80;99.90;;;;;;4972580;28;20439;-80
2021/06/29 07:06:13;;;;;;;1.20;1.10;;;21.90;99.90;;;;;;4979923;28;21042;-80
2021/06/29 07:08:42;;;;;;;1.53;1.20;;;22.00;99.90;;;;;;4975796;28;20459;-81
2021/06/29 07:11:12;;;;;;;2.70;1.30;;;22.10;99.90;;;;;;4971806;28;20474;-81
2021/06/29 07:13:41;;;;;;;5.10;1.50;;;22.20;99.90;;;;;;4973644;28;20455;-79
2021/06/29 07:16:09;;;;;;;1.97;1.20;;;22.30;99.90;;;;;;4977970;28;20475;-80
2021/06/29 07:18:37;;;;;;;1.20;1.10;;;22.30;99.90;;;;;;4981969;28;20473;-78
2021/06/29 07:21:06;;;;;;;1.67;1.10;;;22.40;99.90;;;;;;4991195;28;20448;-78
2021/06/29 07:23:34;;;;;;;1.27;1.00;;;22.40;99.90;;;;;;4977777;28;20489;-78
2021/06/29 07:26:03;;;;;;;1.17;1.17;;;22.50;99.90;;;;;;4981791;28;20842;-81
2021/06/29 07:28:32;;;;;;;1.40;1.20;;;22.60;99.90;;;;;;4974662;28;20453;-81
2021/06/29 07:31:02;;;;;;;1.90;1.20;;;22.60;66.10;;;;;;4985877;28;20533;-80
2021/06/29 07:33:30;;;;;;;1.17;1.00;;;22.60;4.30;;;;;;4972502;28;20483;-80
2021/06/29 07:35:58;;;;;;;1.40;1.30;;;22.50;1.00;;;;;;4981695;28;20892;-80
2021/06/29 07:38:26;;;;;;;3.57;1.40;;;22.50;18.80;;;;;;4995455;28;20478;-79
2021/06/29 07:40:54;;;;;;;1.87;1.27;;;22.60;1.00;;;;;;4974367;28;20459;-81
2021/06/29 07:43:22;;;;;;;1.00;1.00;;;22.60;1.00;;;;;;4977320;28;21006;-78
2021/06/29 07:45:51;;;;;;;1.20;1.10;;;22.60;1.00;;;;;;4974771;28;20997;-78
2021/06/29 07:48:20;;;;;;;1.27;1.10;;;22.50;1.00;;;;;;4972159;28;20459;-81
2021/06/29 07:50:48;;;;;;;1.33;1.00;;;22.50;1.00;;;;;;4971099;28;20447;-79
2021/06/29 07:53:16;;;;;;;1.10;1.00;;;22.60;1.00;;;;;;4984008;28;20462;-80
2021/06/29 07:55:44;;;;;;;3.43;1.13;;;22.60;1.00;;;;;;4987067;28;20477;-81
2021/06/29 07:58:12;;;;;;;1.20;1.10;;;22.60;1.00;;;;;;4973761;28;20450;-78
2021/06/29 08:00:40;;;;;;;1.30;1.20;;;22.70;1.00;;;;;;4973021;28;20454;-80
2021/06/29 08:03:11;;;;;;;1.27;1.00;;;22.70;1.00;;;;;;4985252;28;20980;-80
2021/06/29 08:05:39;;;;;;;0.80;0.80;;;22.70;1.00;;;;;;4979081;28;20509;-79
2021/06/29 08:08:08;;;;;;;0.90;0.90;;;22.60;1.00;;;;;;4981584;28;20461;-81
2021/06/29 08:10:37;;;;;;;1.07;0.97;;;22.60;1.00;;;;;;4989283;28;20451;-80
2021/06/29 08:13:06;;;;;;;1.10;0.70;;;22.70;1.00;;;;;;4974015;28;20470;-78
2021/06/29 08:15:36;;;;;;;1.00;1.00;;;22.70;1.00;;;;;;4982352;28;20511;-78
2021/06/29 08:18:04;;;;;;;1.83;0.90;;;22.70;1.00;;;;;;4978358;28;20473;-79
2021/06/29 08:20:33;;;;;;;0.70;0.70;;;22.70;1.00;;;;;;4979359;28;20899;-80
2021/06/29 08:23:02;;;;;;;1.10;1.00;;;22.70;1.00;;;;;;4979674;28;20494;-80
2021/06/29 08:25:30;;;;;;;1.20;1.10;;;22.80;1.00;;;;;;4970102;28;21235;-79
2021/06/29 08:27:59;;;;;;;0.93;0.93;;;22.80;1.00;;;;;;4977785;28;20449;-80
2021/06/29 08:30:27;;;;;;;0.87;0.87;;;22.70;1.00;;;;;;4981062;28;20449;-81
2021/06/29 08:32:56;;;;;;;0.97;0.97;;;22.80;1.00;;;;;;4978516;28;20459;-81
2021/06/29 08:35:24;;;;;;;2.20;0.90;;;22.90;1.00;;;;;;4991974;28;22490;-80
2021/06/29 08:37:54;;;;;;;2.50;0.70;;;22.90;1.00;;;;;;4982815;28;20497;-81
2021/06/29 08:40:23;;;;;;;1.07;0.90;;;23.00;1.00;;;;;;4969892;28;20477;-81
2021/06/29 08:42:51;;;;;;;0.93;0.93;;;23.00;1.00;;;;;;4971190;28;20463;-80
2021/06/29 08:45:20;;;;;;;1.10;1.00;;;23.10;1.00;;;;;;4972756;28;20459;-81
2021/06/29 08:47:50;;;;;;;1.03;0.80;;;23.10;1.00;;;;;;4971860;28;20489;-80
2021/06/29 08:50:19;;;;;;;0.90;0.90;;;23.20;1.00;;;;;;4972979;28;20530;-79
2021/06/29 08:52:47;;;;;;;0.80;0.80;;;23.30;1.00;;;;;;4989700;28;20493;-81
2021/06/29 08:55:17;;;;;;;1.67;0.90;;;23.30;1.00;;;;;;4975273;28;20959;-79
2021/06/29 08:57:45;;;;;;;1.73;0.80;;;23.30;99.90;;;;;;4974176;28;20453;-79
2021/06/29 09:00:14;;;;;;;1.20;0.80;;;23.30;99.90;;;;;;4974063;28;20483;-79
2021/06/29 09:02:42;;;;;;;0.80;0.70;;;23.40;99.90;;;;;;4976335;28;20446;-80
2021/06/29 09:05:22;;;;;;;1.07;1.07;;;23.30;99.90;;;;;;4994717;28;20462;-79
2021/06/29 09:08:03;;;;;;;1.53;1.00;;;23.20;99.90;;;;;;4976795;28;20442;-78
2021/06/29 09:10:33;;;;;;;1.30;1.20;;;23.20;99.90;;;;;;4971173;28;20450;-78
2021/06/29 09:13:02;;;;;;;1.13;0.90;;;23.10;99.90;;;;;;4983014;28;20558;-78
2021/06/29 09:15:37;;;;;;;2.33;0.90;;;23.10;99.90;;;;;;4997112;28;21076;-78
2021/06/29 09:18:17;;;;;;;0.83;0.83;;;23.20;99.90;;;;;;4978782;28;20447;-79
2021/06/29 09:20:57;;;;;;;1.50;0.90;;;23.20;99.90;;;;;;4979495;28;20472;-78
2021/06/29 09:23:28;;;;;;;0.90;0.90;;;23.30;99.90;;;;;;4981000;28;20465;-78
2021/06/29 09:26:00;;;;;;;0.97;0.87;;;23.40;99.90;;;;;;4983704;28;20475;-79
2021/06/29 09:28:31;;;;;;;1.13;1.10;;;23.40;99.90;;;;;;4970376;28;20462;-79
2021/06/29 09:31:02;;;;;;;0.90;0.90;;;23.40;99.90;;;;;;4979901;28;20538;-79
2021/06/29 09:33:35;;;;;;;1.10;1.00;;;23.50;99.90;;;;;;4970213;28;20803;-79
2021/06/29 09:36:05;;;;;;;1.10;1.03;;;23.60;99.90;;;;;;4971300;28;20514;-81
2021/06/29 09:38:35;;;;;;;1.07;1.03;;;23.60;99.90;;;;;;4991277;28;20464;-77
2021/06/29 09:41:07;;;;;;;1.10;1.00;;;23.60;99.90;;;;;;4985689;28;20470;-78
2021/06/29 09:43:37;;;;;;;1.00;1.00;;;23.60;99.90;;;;;;4975066;28;20462;-77
2021/06/29 09:46:09;;;;;;;1.00;0.90;;;23.60;99.90;;;;;;4980894;28;20512;-79
2021/06/29 09:48:41;;;;;;;1.00;1.00;;;23.60;99.90;;;;;;4975541;28;20970;-78
2021/06/29 09:51:15;;;;;;;1.10;1.10;;;23.60;99.90;;;;;;4981661;28;20482;-79
2021/06/29 09:53:43;;;;;;;1.33;1.23;;;23.70;99.90;;;;;;4976381;28;20537;-80
2021/06/29 09:56:15;;;;;;;1.67;0.80;;;23.80;99.90;;;;;;4971709;28;20474;-79
2021/06/29 09:58:46;;;;;;;1.00;0.90;;;23.80;99.90;;;;;;4979977;28;21239;-80
2021/06/29 10:01:20;;;;;;;2.43;1.10;;;23.90;99.90;;;;;;4979034;28;20597;-80
2021/06/29 10:03:51;;;;;;;1.30;1.20;;;24.00;99.90;;;;;;4981825;28;20492;-77
2021/06/29 10:06:20;;;;;;;1.00;1.00;;;23.90;99.90;;;;;;4986039;28;21035;-78
2021/06/29 10:08:51;;;;;;;1.90;1.20;;;23.90;99.90;;;;;;4979306;28;20490;-78
2021/06/29 10:11:25;;;;;;;2.83;1.93;;;24.00;99.90;;;;;;4969456;28;20547;-78
2021/06/29 10:13:58;;;;;;;2.07;1.93;;;24.00;99.90;;;;;;4968514;28;20459;-80
2021/06/29 10:16:31;;;;;;;1.07;1.00;;;24.10;99.90;;;;;;4972958;28;20474;-79
2021/06/29 10:19:16;;;;;;;0.90;0.90;;;24.10;99.90;;;;;;4974769;28;20451;-79
2021/06/29 10:21:46;;;;;;;0.90;0.90;;;24.10;99.90;;;;;;4980739;28;20478;-79
2021/06/29 10:24:16;;;;;;;1.10;1.00;;;24.00;99.90;;;;;;4973229;28;20893;-81
2021/06/29 10:26:47;;;;;;;2.40;1.10;;;24.10;99.90;;;;;;4968671;28;21006;-79
2021/06/29 10:29:17;;;;;;;1.03;1.03;;;24.10;99.90;;;;;;4971796;28;20427;-80
2021/06/29 10:31:47;;;;;;;2.00;1.03;;;24.10;99.90;;;;;;4975533;28;20470;-79
2021/06/29 10:34:17;;;;;;;1.40;1.10;;;24.30;99.90;;;;;;4978700;28;20473;-79
2021/06/29 10:36:47;;;;;;;1.00;1.00;;;24.30;99.90;;;;;;4978795;28;20486;-80
2021/06/29 10:39:18;;;;;;;1.10;0.90;;;24.40;99.90;;;;;;4987949;28;20443;-78
2021/06/29 10:41:51;;;;;;;1.70;1.60;;;24.40;99.90;;;;;;4973591;28;20557;-79
2021/06/29 10:44:21;;;;;;;1.07;1.00;;;24.40;99.90;;;;;;4988842;28;20460;-79
2021/06/29 10:46:52;;;;;;;1.27;1.17;;;24.50;99.90;;;;;;4998951;28;20934;-79
2021/06/29 10:49:42;;;;;;;1.40;1.10;;;24.50;99.90;;;;;;4977838;28;20760;-80
2021/06/29 10:52:37;;;;;;;1.10;1.00;;;24.50;99.90;;;;;;4973830;28;20462;-79
2021/06/29 10:55:22;;;;;;;1.30;1.20;;;24.60;99.90;;;;;;4979199;28;20838;-78
2021/06/29 10:57:53;;;;;;;1.30;1.20;;;24.60;99.90;;;;;;4977691;28;20485;-79
2021/06/29 11:00:31;;;;;;;1.00;1.00;;;24.60;99.90;;;;;;4983828;28;20482;-80
2021/06/29 11:03:02;;;;;;;1.60;1.30;;;24.70;99.90;;;;;;4982812;28;20457;-79
2021/06/29 11:05:32;;;;;;;2.30;1.23;;;24.70;99.90;;;;;;4978809;28;20465;-80
2021/06/29 11:08:08;;;;;;;1.30;1.20;;;24.80;99.90;;;;;;4979878;28;20471;-79
2021/06/29 11:10:38;;;;;;;1.97;1.20;;;24.80;99.90;;;;;;4979160;28;20482;-78
2021/06/29 11:13:09;;;;;;;1.57;1.30;;;24.90;99.90;;;;;;4985142;28;20966;-79
2021/06/29 11:15:50;;;;;;;1.27;1.10;;;24.90;99.90;;;;;;4972319;28;20475;-77
2021/06/29 11:18:21;;;;;;;1.93;1.30;;;24.90;99.90;;;;;;4979445;28;20449;-79
2021/06/29 11:20:51;;;;;;;1.03;1.03;;;25.00;99.90;;;;;;4975647;28;20586;-79
2021/06/29 11:23:30;;;;;;;1.60;1.10;;;25.00;99.90;;;;;;4982639;28;20804;-80
2021/06/29 11:26:16;;;;;;;1.67;1.20;;;25.00;99.90;;;;;;4972558;28;20479;-78
2021/06/29 11:29:07;;;;;;;1.93;1.17;;;25.00;99.90;;;;;;4987033;28;20478;-79
2021/06/29 11:31:35;;;;;;;1.00;1.00;;;24.90;99.90;;;;;;4987835;28;20529;-77
2021/06/29 11:34:07;;;;;;;1.13;1.03;;;24.90;99.90;;;;;;4980476;28;20451;-79
2021/06/29 11:36:51;;;;;;;1.47;1.13;;;25.00;99.90;;;;;;4972628;28;20998;-78
2021/06/29 11:39:34;;;;;;;1.40;1.30;;;25.00;99.90;;;;;;4976551;28;20470;-79
2021/06/29 11:42:23;;;;;;;1.17;1.07;;;25.00;99.90;;;;;;4974751;28;20513;-80
2021/06/29 11:45:01;;;;;;;1.10;1.00;;;25.00;99.90;;;;;;4979909;28;20518;-79
2021/06/29 11:47:39;;;;;;;1.10;1.10;;;25.00;99.90;;;;;;4981446;28;20490;-80
2021/06/29 11:50:23;;;;;;;1.20;1.03;;;25.00;99.90;;;;;;4975511;28;21000;-79
2021/06/29 11:52:51;;;;;;;1.23;1.00;;;25.00;99.90;;;;;;4986980;28;20761;-79
2021/06/29 11:55:19;;;;;;;5.73;1.60;;;25.00;99.90;;;;;;4975305;28;20954;-80
2021/06/29 11:57:51;;;;;;;1.50;1.40;;;25.10;99.90;;;;;;4971687;28;20816;-79
2021/06/29 12:00:29;;;;;;;2.53;2.40;;;25.10;99.90;;;;;;4976131;28;20477;-80
2021/06/29 12:02:59;;;;;;;1.50;1.40;;;25.10;99.90;;;;;;4974064;28;20475;-80
2021/06/29 12:05:30;;;;;;;2.60;1.77;;;25.10;99.90;;;;;;4990269;28;20736;-79
2021/06/29 12:08:00;;;;;;;1.30;1.20;;;25.10;99.90;;;;;;4970994;28;20450;-79
2021/06/29 12:10:30;;;;;;;1.40;1.10;;;25.20;99.90;;;;;;4988295;28;20454;-78
2021/06/29 12:13:00;;;;;;;1.27;1.10;;;25.10;99.90;;;;;;4980592;28;20510;-77
2021/06/29 12:15:33;;;;;;;1.77;1.10;;;25.10;99.90;;;;;;4981444;28;20950;-79
2021/06/29 12:18:04;;;;;;;1.30;1.10;;;25.20;99.90;;;;;;4989125;28;20455;-82
2021/06/29 12:20:34;;;;;;;1.40;1.30;;;25.10;99.90;;;;;;4977461;28;20881;-81
2021/06/29 12:23:04;;;;;;;1.40;1.30;;;25.10;99.90;;;;;;4982228;28;20524;-80
2021/06/29 12:25:34;;;;;;;1.30;1.20;;;25.10;99.90;;;;;;4983970;28;20465;-78
2021/06/29 12:28:05;;;;;;;1.00;1.00;;;25.10;99.90;;;;;;4980137;28;20486;-81
2021/06/29 12:30:39;;;;;;;1.20;1.20;;;25.00;99.90;;;;;;4989234;28;20832;-80
2021/06/29 12:33:22;;;;;;;1.17;1.00;;;25.00;99.90;;;;;;4975115;28;20854;-79
2021/06/29 12:35:53;;;;;;;1.27;1.17;;;25.00;99.90;;;;;;4978435;28;20473;-80
2021/06/29 12:38:23;;;;;;;1.37;1.20;;;24.90;99.90;;;;;;4986664;28;20538;-79
2021/06/29 12:40:54;;;;;;;1.33;1.10;;;24.90;99.90;;;;;;4979825;28;20444;-79
2021/06/29 12:43:29;;;;;;;1.13;0.70;;;24.80;99.90;;;;;;4969135;28;20466;-79
2021/06/29 12:46:14;;;;;;;1.07;0.50;;;24.40;99.90;;;;;;4972405;28;20486;-79
2021/06/29 12:48:59;;;;;;;2.30;0.93;;;23.80;99.90;;;;;;4976309;28;20463;-79
2021/06/29 12:51:27;;;;;;;1.83;0.50;;;23.30;99.90;;;;;;4987403;28;20454;-80
2021/06/29 12:53:58;;;;;;;0.57;0.57;;;22.90;99.90;;;;;;4977750;28;20513;-79
2021/06/29 12:56:32;;;;;;;0.83;0.50;;;22.90;99.90;;;;;;4976196;28;20475;-77
2021/06/29 12:59:01;;;;;;;0.57;0.50;;;22.70;99.90;;;;;;4979477;28;20982;-79
2021/06/29 13:01:33;;;;;;;2.20;0.60;;;22.60;99.90;;;;;;4977866;28;20501;-78
2021/06/29 13:04:08;;;;;;;0.50;0.50;;;22.50;99.90;;;;;;4985367;28;20468;-79
2021/06/29 13:06:37;;;;;;;0.90;0.70;;;22.50;99.90;;;;;;4972461;28;20544;-80
2021/06/29 13:09:09;;;;;;;0.50;0.50;;;22.40;99.90;;;;;;4973272;28;20744;-78
2021/06/29 13:11:38;;;;;;;0.97;0.80;;;22.40;99.90;;;;;;4974860;28;20866;-80
2021/06/29 13:14:14;;;;;;;0.80;0.80;;;22.30;99.90;;;;;;5098256;27;21001;-78